createdAt,value
2023-05-10T00:01:11.206Z,97557.97
2023-05-10T00:03:38.283Z,97549.41
2023-05-10T00:06:05.018Z,97552.53
2023-05-10T00:08:31.660Z,97551.00
2023-05-10T00:10:58.310Z,97549.50
2023-05-10T00:13:25.016Z,97541.41
2023-05-10T00:15:51.754Z,97536.78
2023-05-10T00:18:18.390Z,97537.63
2023-05-10T00:20:46.975Z,97543.94
2023-05-10T00:23:13.696Z,97535.25
2023-05-10T00:25:40.437Z,97536.22
2023-05-10T00:28:07.132Z,97533.34
2023-05-10T00:30:33.723Z,97530.53
2023-05-10T00:33:02.010Z,97531.72
2023-05-10T00:35:28.629Z,97517.81
2023-05-10T00:37:55.488Z,97525.78
2023-05-10T00:40:22.129Z,97516.66
2023-05-10T00:42:53.534Z,97520.59
2023-05-10T00:45:21.321Z,97509.94
2023-05-10T00:47:48.392Z,97516.09
2023-05-10T00:50:16.521Z,97515.03
2023-05-10T00:52:43.906Z,97502.66
2023-05-10T00:55:12.424Z,97505.97
2023-05-10T00:57:39.803Z,97505.88
2023-05-10T01:00:07.062Z,97496.63
2023-05-10T01:02:35.416Z,97498.53
2023-05-10T01:05:04.682Z,97498.06
2023-05-10T01:07:31.378Z,97499.25
2023-05-10T01:09:58.823Z,97500.69
2023-05-10T01:12:26.225Z,97496.41
2023-05-10T01:14:53.106Z,97497.00
2023-05-10T01:17:20.667Z,97492.16
2023-05-10T01:19:47.410Z,97493.94
2023-05-10T01:22:32.317Z,97492.88
2023-05-10T01:25:36.210Z,97494.66
2023-05-10T01:28:18.253Z,97492.88
2023-05-10T01:31:04.315Z,97492.41
2023-05-10T01:33:42.669Z,97492.78
2023-05-10T01:36:27.934Z,97479.59
2023-05-10T01:39:03.254Z,97484.38
2023-05-10T01:41:44.219Z,97483.31
2023-05-10T01:44:33.978Z,97494.47
2023-05-10T01:47:10.806Z,97484.38
2023-05-10T01:49:42.819Z,97477.00
2023-05-10T01:52:16.881Z,97474.50
2023-05-10T01:54:50.184Z,97489.13
2023-05-10T01:57:18.416Z,97477.47
2023-05-10T01:59:49.029Z,97474.50
2023-05-10T02:02:16.305Z,97474.16
2023-05-10T02:04:45.769Z,97482.81
2023-05-10T02:07:13.049Z,97480.31
2023-05-10T02:09:40.355Z,97469.13
2023-05-10T02:12:09.186Z,97467.13
2023-05-10T02:14:37.697Z,97470.22
2023-05-10T02:17:07.592Z,97468.94
2023-05-10T02:19:36.751Z,97466.78
2023-05-10T02:22:04.800Z,97465.13
2023-05-10T02:24:34.739Z,97468.47
2023-05-10T02:27:03.339Z,97458.47
2023-05-10T02:29:32.063Z,97460.72
2023-05-10T02:31:59.884Z,97453.25
2023-05-10T02:34:28.498Z,97453.50
2023-05-10T02:36:57.106Z,97459.44
2023-05-10T02:39:25.815Z,97452.88
2023-05-10T02:41:54.576Z,97449.00
2023-05-10T02:44:23.581Z,97453.25
2023-05-10T02:46:50.635Z,97451.09
2023-05-10T02:49:17.449Z,97461.69
2023-05-10T02:51:56.494Z,97462.25
2023-05-10T02:54:28.524Z,97463.44
2023-05-10T02:56:59.075Z,97465.38
2023-05-10T02:59:25.875Z,97457.03
2023-05-10T03:01:52.552Z,97458.47
2023-05-10T03:04:19.556Z,97462.03
2023-05-10T03:06:46.691Z,97456.19
2023-05-10T03:09:16.282Z,97461.66
2023-05-10T03:11:58.063Z,97458.25
2023-05-10T03:14:54.941Z,97457.88
2023-05-10T03:17:51.806Z,97452.75
2023-05-10T03:20:32.815Z,97459.16
2023-05-10T03:23:13.339Z,97454.41
2023-05-10T03:25:42.150Z,97447.19
2023-05-10T03:28:10.020Z,97458.34
2023-05-10T03:30:37.926Z,97457.03
2023-05-10T03:33:08.163Z,97454.44
2023-05-10T03:35:38.913Z,97463.47
2023-05-10T03:38:06.491Z,97459.66
2023-05-10T03:40:33.441Z,97464.03
2023-05-10T03:43:00.502Z,97461.56
2023-05-10T03:45:28.139Z,97460.22
2023-05-10T03:47:55.046Z,97462.13
2023-05-10T03:50:22.121Z,97463.81
2023-05-10T03:52:49.019Z,97465.69
2023-05-10T03:55:15.734Z,97464.63
2023-05-10T03:57:42.387Z,97463.09
2023-05-10T04:00:10.675Z,97461.06
2023-05-10T04:02:43.838Z,97464.16
2023-05-10T04:05:16.777Z,97463.09
2023-05-10T04:07:45.186Z,97469.50
2023-05-10T04:10:12.387Z,97474.50
2023-05-10T04:12:38.973Z,97468.78
2023-05-10T04:15:06.040Z,97472.81
2023-05-10T04:17:32.719Z,97470.34
2023-05-10T04:19:59.350Z,97475.91
2023-05-10T04:22:25.922Z,97475.56
2023-05-10T04:24:52.557Z,97479.16
2023-05-10T04:27:19.222Z,97483.75
2023-05-10T04:29:45.801Z,97481.97
2023-05-10T04:32:12.434Z,97478.88
2023-05-10T04:34:39.178Z,97481.72
2023-05-10T04:37:05.796Z,97482.31
2023-05-10T04:39:33.174Z,97487.28
2023-05-10T04:41:59.792Z,97482.50
2023-05-10T04:44:26.382Z,97479.16
2023-05-10T04:46:52.975Z,97478.78
2023-05-10T04:49:20.365Z,97478.31
2023-05-10T04:51:47.548Z,97488.03
2023-05-10T04:54:14.174Z,97489.19
2023-05-10T04:56:42.104Z,97495.59
2023-05-10T04:59:09.111Z,97490.81
2023-05-10T05:01:35.925Z,97485.06
2023-05-10T05:04:02.886Z,97487.44
2023-05-10T05:06:29.485Z,97486.66
2023-05-10T05:08:56.382Z,97484.81
2023-05-10T05:11:23.698Z,97485.69
2023-05-10T05:13:50.656Z,97488.00
2023-05-10T05:16:17.661Z,97485.34
2023-05-10T05:18:44.669Z,97488.00
2023-05-10T05:21:18.955Z,97498.38
2023-05-10T05:23:46.895Z,97498.31
2023-05-10T05:26:13.816Z,97486.94
2023-05-10T05:28:40.866Z,97489.88
2023-05-10T05:31:09.048Z,97499.69
2023-05-10T05:33:36.484Z,97504.25
2023-05-10T05:36:07.478Z,97500.25
2023-05-10T05:38:34.672Z,97495.53
2023-05-10T05:41:01.953Z,97500.38
2023-05-10T05:43:28.846Z,97497.31
2023-05-10T05:45:56.269Z,97503.31
2023-05-10T05:48:22.937Z,97509.09
2023-05-10T05:50:49.571Z,97501.84
2023-05-10T05:53:17.008Z,97503.16
2023-05-10T05:55:53.601Z,97509.19
2023-05-10T05:58:20.224Z,97508.88
2023-05-10T06:00:46.866Z,97506.03
2023-05-10T06:03:13.628Z,97511.69
2023-05-10T06:05:40.379Z,97520.00
2023-05-10T06:08:07.153Z,97508.13
2023-05-10T06:10:33.796Z,97511.44
2023-05-10T06:13:00.808Z,97515.47
2023-05-10T06:15:28.149Z,97517.22
2023-05-10T06:17:54.857Z,97523.13
2023-05-10T06:20:21.521Z,97523.25
2023-05-10T06:22:48.120Z,97525.38
2023-05-10T06:25:15.830Z,97522.34
2023-05-10T06:27:42.725Z,97525.66
2023-05-10T06:30:13.345Z,97521.25
2023-05-10T06:32:40.796Z,97521.00
2023-05-10T06:35:08.768Z,97516.41
2023-05-10T06:37:35.477Z,97517.25
2023-05-10T06:40:02.855Z,97523.59
2023-05-10T06:42:29.477Z,97519.53
2023-05-10T06:44:56.068Z,97520.50
2023-05-10T06:47:23.109Z,97518.38
2023-05-10T06:49:49.676Z,97515.88
2023-05-10T06:52:16.259Z,97507.13
2023-05-10T06:54:42.938Z,97509.00
2023-05-10T06:57:19.409Z,97507.16
2023-05-10T06:59:50.297Z,97504.53
2023-05-10T07:02:17.461Z,97501.00
2023-05-10T07:04:44.158Z,97499.81
2023-05-10T07:07:10.779Z,97497.06
2023-05-10T07:09:37.360Z,97495.69
2023-05-10T07:12:04.464Z,97497.34
2023-05-10T07:14:31.116Z,97500.94
2023-05-10T07:16:57.760Z,97500.34
2023-05-10T07:19:24.752Z,97505.56
2023-05-10T07:21:51.827Z,97495.56
2023-05-10T07:24:18.649Z,97499.84
2023-05-10T07:26:45.259Z,97492.06
2023-05-10T07:29:11.854Z,97498.44
2023-05-10T07:31:38.612Z,97500.13
2023-05-10T07:34:05.678Z,97501.22
2023-05-10T07:36:32.281Z,97498.75
2023-05-10T07:38:58.881Z,97503.19
2023-05-10T07:41:25.460Z,97501.75
2023-05-10T07:43:52.054Z,97505.41
2023-05-10T07:46:20.404Z,97499.75
2023-05-10T07:48:47.125Z,97501.38
2023-05-10T07:51:13.867Z,97502.03
2023-05-10T07:53:40.446Z,97496.19
2023-05-10T07:56:24.042Z,97499.50
2023-05-10T07:58:50.692Z,97497.09
2023-05-10T08:01:17.304Z,97503.56
2023-05-10T08:03:44.073Z,97498.44
2023-05-10T08:06:10.936Z,97503.16
2023-05-10T08:08:37.766Z,97492.28
2023-05-10T08:11:05.107Z,97495.72
2023-05-10T08:13:32.435Z,97502.16
2023-05-10T08:15:59.256Z,97495.41
2023-05-10T08:18:26.111Z,97497.44
2023-05-10T08:20:52.813Z,97500.50
2023-05-10T08:23:19.495Z,97501.09
2023-05-10T08:25:46.117Z,97500.25
2023-05-10T08:28:12.699Z,97488.81
2023-05-10T08:30:39.317Z,97492.19
2023-05-10T08:33:06.024Z,97496.13
2023-05-10T08:35:34.163Z,97491.47
2023-05-10T08:38:00.785Z,97495.94
2023-05-10T08:40:27.888Z,97495.31
2023-05-10T08:43:07.130Z,97495.84
2023-05-10T08:45:38.524Z,97487.41
2023-05-10T08:48:07.779Z,97494.38
2023-05-10T08:50:38.708Z,97487.16
2023-05-10T08:53:07.862Z,97489.72
2023-05-10T08:55:34.867Z,97488.03
2023-05-10T08:58:01.515Z,97484.53
2023-05-10T09:00:29.988Z,97484.56
2023-05-10T09:02:58.200Z,97483.69
2023-05-10T09:05:25.240Z,97484.31
2023-05-10T09:07:52.566Z,97481.66
2023-05-10T09:10:20.390Z,97486.75
2023-05-10T09:12:49.122Z,97484.47
2023-05-10T09:15:20.348Z,97488.56
2023-05-10T09:17:48.200Z,97484.09
2023-05-10T09:20:14.892Z,97483.06
2023-05-10T09:22:41.819Z,97479.97
2023-05-10T09:25:13.075Z,97477.72
2023-05-10T09:27:41.422Z,97483.69
2023-05-10T09:30:09.060Z,97482.03
2023-05-10T09:32:43.276Z,97479.19
2023-05-10T09:35:14.771Z,97480.34
2023-05-10T09:37:43.957Z,97480.16
2023-05-10T09:40:16.289Z,97472.03
2023-05-10T09:42:57.498Z,97473.97
2023-05-10T09:45:25.893Z,97471.06
2023-05-10T09:47:53.050Z,97476.84
2023-05-10T09:50:21.505Z,97470.81
2023-05-10T09:52:51.259Z,97476.13
2023-05-10T09:55:20.799Z,97471.97
2023-05-10T09:57:49.198Z,97465.69
2023-05-10T10:00:21.490Z,97462.94
2023-05-10T10:02:55.242Z,97461.66
2023-05-10T10:05:22.029Z,97466.69
2023-05-10T10:07:50.217Z,97468.47
2023-05-10T10:10:17.155Z,97466.16
2023-05-10T10:12:44.047Z,97453.34
2023-05-10T10:15:11.489Z,97462.13
2023-05-10T10:17:39.587Z,97454.66
2023-05-10T10:20:08.701Z,97447.53
2023-05-10T10:22:37.733Z,97449.66
2023-05-10T10:25:05.895Z,97447.28
2023-05-10T10:27:41.883Z,97445.88
2023-05-10T10:30:22.832Z,97448.69
2023-05-10T10:33:16.886Z,97447.38
2023-05-10T10:35:55.511Z,97441.81
2023-05-10T10:38:23.032Z,97442.72
2023-05-10T10:40:49.651Z,97442.69
2023-05-10T10:43:22.079Z,97433.66
2023-05-10T10:46:15.654Z,97438.72
2023-05-10T10:49:11.514Z,97437.34
2023-05-10T10:51:41.899Z,97435.47
2023-05-10T10:54:12.163Z,97437.28
2023-05-10T10:56:38.962Z,97434.66
2023-05-10T10:59:09.385Z,97434.63
2023-05-10T11:01:36.412Z,97425.66
2023-05-10T11:04:06.286Z,97428.81
2023-05-10T11:06:37.130Z,97421.44
2023-05-10T11:09:08.761Z,97420.50
2023-05-10T11:11:36.769Z,97419.91
2023-05-10T11:14:05.793Z,97420.28
2023-05-10T11:16:43.989Z,97418.94
2023-05-10T11:19:16.285Z,97418.28
2023-05-10T11:21:48.704Z,97418.16
2023-05-10T11:24:17.991Z,97417.00
2023-05-10T11:26:44.769Z,97408.72
2023-05-10T11:29:13.321Z,97406.06
2023-05-10T11:31:47.613Z,97405.91
2023-05-10T11:34:34.659Z,97405.41
2023-05-10T11:37:01.941Z,97404.16
2023-05-10T11:39:30.063Z,97402.03
2023-05-10T11:41:58.257Z,97401.03
2023-05-10T11:44:30.762Z,97395.88
2023-05-10T11:47:00.681Z,97402.84
2023-05-10T11:49:27.336Z,97394.03
2023-05-10T11:51:53.951Z,97389.16
2023-05-10T11:54:20.698Z,97396.31
2023-05-10T11:56:50.301Z,97399.09
2023-05-10T11:59:16.943Z,97387.88
2023-05-10T12:01:43.798Z,97388.66
2023-05-10T12:04:10.675Z,97385.31
2023-05-10T12:06:41.481Z,97391.41
2023-05-10T12:09:08.940Z,97390.09
2023-05-10T12:11:42.557Z,97388.44
2023-05-10T12:14:10.877Z,97390.06
2023-05-10T12:16:37.540Z,97390.06
2023-05-10T12:19:04.315Z,97392.81
2023-05-10T12:21:34.342Z,97396.63
2023-05-10T12:24:03.905Z,97397.41
2023-05-10T12:26:31.132Z,97395.81
2023-05-10T12:29:18.071Z,97396.50
2023-05-10T12:31:56.105Z,97399.41
2023-05-10T12:34:32.516Z,97395.69
2023-05-10T12:36:59.503Z,97394.06
2023-05-10T12:39:26.141Z,97391.00
2023-05-10T12:41:53.449Z,97395.94
2023-05-10T12:44:20.147Z,97387.66
2023-05-10T12:46:46.733Z,97397.25
2023-05-10T12:49:13.346Z,97391.72
2023-05-10T12:51:40.016Z,97393.34
2023-05-10T12:54:06.620Z,97390.91
2023-05-10T12:56:33.204Z,97394.69
2023-05-10T12:58:59.882Z,97393.03
2023-05-10T13:01:26.567Z,97388.34
2023-05-10T13:03:53.270Z,97392.88
2023-05-10T13:06:19.915Z,97383.53
2023-05-10T13:08:46.512Z,97383.25
2023-05-10T13:11:17.483Z,97387.75
2023-05-10T13:13:44.149Z,97382.81
2023-05-10T13:16:10.790Z,97389.63
2023-05-10T13:18:37.430Z,97382.16
2023-05-10T13:21:06.346Z,97383.81
2023-05-10T13:23:33.011Z,97379.00
2023-05-10T13:25:59.679Z,97376.50
2023-05-10T13:28:27.353Z,97381.97
2023-05-10T13:30:54.008Z,97374.56
2023-05-10T13:33:20.690Z,97376.34
2023-05-10T13:35:47.360Z,97382.63
2023-05-10T13:38:14.743Z,97375.63
2023-05-10T13:40:41.485Z,97364.91
2023-05-10T13:43:08.252Z,97373.63
2023-05-10T13:45:34.873Z,97372.97
2023-05-10T13:48:01.578Z,97366.03
2023-05-10T13:50:28.184Z,97361.59
2023-05-10T13:52:54.900Z,97362.47
2023-05-10T13:55:21.530Z,97359.00
2023-05-10T13:57:48.522Z,97359.53
2023-05-10T14:00:16.146Z,97359.38
2023-05-10T14:02:43.039Z,97358.56
2023-05-10T14:05:09.832Z,97363.69
2023-05-10T14:07:36.518Z,97359.72
2023-05-10T14:10:03.820Z,97358.66
2023-05-10T14:12:30.426Z,97355.66
2023-05-10T14:14:57.029Z,97352.97
2023-05-10T14:17:23.701Z,97351.06
2023-05-10T14:19:50.396Z,97362.19
2023-05-10T14:22:17.119Z,97354.88
2023-05-10T14:24:47.597Z,97359.69
2023-05-10T14:27:14.318Z,97357.91
2023-05-10T14:29:40.959Z,97354.19
2023-05-10T14:32:07.624Z,97340.41
2023-05-10T14:34:34.462Z,97348.06
2023-05-10T14:37:01.061Z,97349.28
2023-05-10T14:39:30.636Z,97340.53
2023-05-10T14:41:57.507Z,97340.16
2023-05-10T14:44:24.782Z,97339.97
2023-05-10T14:46:51.773Z,97334.84
2023-05-10T14:49:18.355Z,97338.81
2023-05-10T14:51:46.018Z,97342.47
2023-05-10T14:54:12.632Z,97337.66
2023-05-10T14:56:39.360Z,97330.44
2023-05-10T14:59:05.998Z,97336.84
2023-05-10T15:01:34.037Z,97336.81
2023-05-10T15:04:01.846Z,97325.31
2023-05-10T15:06:33.465Z,97333.22
2023-05-10T15:09:01.176Z,97335.97
2023-05-10T15:11:27.921Z,97341.94
2023-05-10T15:13:54.716Z,97346.25
2023-05-10T15:16:21.431Z,97341.63
2023-05-10T15:18:48.152Z,97340.50
2023-05-10T15:21:14.855Z,97338.75
2023-05-10T15:23:41.585Z,97340.72
2023-05-10T15:26:08.815Z,97336.28
2023-05-10T15:28:35.488Z,97341.59
2023-05-10T15:31:02.075Z,97333.41
2023-05-10T15:33:28.686Z,97331.59
2023-05-10T15:35:55.377Z,97334.66
2023-05-10T15:38:22.018Z,97324.41
2023-05-10T15:40:48.634Z,97326.88
2023-05-10T15:43:16.182Z,97321.53
2023-05-10T15:45:42.773Z,97320.53
2023-05-10T15:48:09.366Z,97320.09
2023-05-10T15:50:35.992Z,97312.94
2023-05-10T15:53:03.121Z,97304.09
2023-05-10T15:55:30.418Z,97315.41
2023-05-10T15:57:57.685Z,97310.84
2023-05-10T16:00:25.485Z,97305.09
2023-05-10T16:02:54.225Z,97314.34
2023-05-10T16:05:21.261Z,97309.47
2023-05-10T16:07:48.161Z,97309.13
2023-05-10T16:10:15.395Z,97314.41
2023-05-10T16:12:42.092Z,97322.56
2023-05-10T16:15:09.092Z,97316.53
2023-05-10T16:17:35.807Z,97314.19
2023-05-10T16:20:02.661Z,97321.91
2023-05-10T16:22:29.970Z,97318.84
2023-05-10T16:24:59.854Z,97319.56
2023-05-10T16:27:28.688Z,97320.22
2023-05-10T16:29:55.365Z,97318.28
2023-05-10T16:32:21.955Z,97325.25
2023-05-10T16:34:50.164Z,97325.53
2023-05-10T16:37:17.501Z,97322.78
2023-05-10T16:39:44.356Z,97325.78
2023-05-10T16:42:11.030Z,97327.19
2023-05-10T16:44:37.663Z,97321.78
2023-05-10T16:47:04.244Z,97334.03
2023-05-10T16:49:30.895Z,97327.53
2023-05-10T16:51:57.523Z,97334.78
2023-05-10T16:54:24.111Z,97334.41
2023-05-10T16:56:50.794Z,97336.78
2023-05-10T16:59:17.459Z,97338.50
2023-05-10T17:01:44.898Z,97334.84
2023-05-10T17:04:11.668Z,97339.59
2023-05-10T17:06:38.665Z,97337.50
2023-05-10T17:09:05.814Z,97333.81
2023-05-10T17:11:32.952Z,97336.78
2023-05-10T17:14:01.387Z,97336.66
2023-05-10T17:16:29.839Z,97336.31
2023-05-10T17:18:56.833Z,97341.16
2023-05-10T17:21:23.474Z,97349.66
2023-05-10T17:23:50.077Z,97347.16
2023-05-10T17:26:17.093Z,97349.88
2023-05-10T17:28:43.702Z,97345.59
2023-05-10T17:31:10.456Z,97350.16
2023-05-10T17:33:37.079Z,97358.81
2023-05-10T17:36:03.873Z,97357.69
2023-05-10T17:38:30.504Z,97354.72
2023-05-10T17:40:57.082Z,97353.59
2023-05-10T17:43:23.865Z,97358.75
2023-05-10T17:45:50.543Z,97360.44
2023-05-10T17:48:17.350Z,97356.84
2023-05-10T17:50:44.554Z,97355.72
2023-05-10T17:53:11.198Z,97358.84
2023-05-10T17:55:42.030Z,97364.53
2023-05-10T17:58:11.016Z,97360.03
2023-05-10T18:00:38.175Z,97370.50
2023-05-10T18:03:07.711Z,97375.34
2023-05-10T18:05:38.906Z,97371.22
2023-05-10T18:08:06.080Z,97376.84
2023-05-10T18:10:32.819Z,97376.72
2023-05-10T18:13:00.549Z,97374.59
2023-05-10T18:15:27.766Z,97366.66
2023-05-10T18:17:55.839Z,97373.31
2023-05-10T18:20:22.922Z,97377.59
2023-05-10T18:22:49.729Z,97377.31
2023-05-10T18:25:17.028Z,97378.13
2023-05-10T18:27:44.092Z,97378.84
2023-05-10T18:30:12.360Z,97382.00
2023-05-10T18:32:39.654Z,97381.38
2023-05-10T18:35:07.643Z,97382.56
2023-05-10T18:37:34.819Z,97387.53
2023-05-10T18:40:01.452Z,97384.41
2023-05-10T18:42:28.168Z,97390.69
2023-05-10T18:44:55.792Z,97394.16
2023-05-10T18:47:22.673Z,97396.34
2023-05-10T18:49:49.347Z,97407.91
2023-05-10T18:52:16.334Z,97401.13
2023-05-10T18:54:43.388Z,97395.69
2023-05-10T18:57:10.997Z,97404.97
2023-05-10T18:59:37.570Z,97407.59
2023-05-10T19:02:04.695Z,97413.59
2023-05-10T19:04:31.706Z,97412.28
2023-05-10T19:06:59.925Z,97419.56
2023-05-10T19:09:26.893Z,97418.22
2023-05-10T19:11:53.726Z,97411.47
2023-05-10T19:14:21.182Z,97416.94
2023-05-10T19:16:49.258Z,97424.88
2023-05-10T19:19:16.524Z,97422.53
2023-05-10T19:21:43.274Z,97422.72
2023-05-10T19:24:12.453Z,97428.19
2023-05-10T19:26:39.221Z,97419.94
2023-05-10T19:29:05.902Z,97421.91
2023-05-10T19:31:33.634Z,97423.72
2023-05-10T19:34:01.067Z,97420.56
2023-05-10T19:36:27.840Z,97430.31
2023-05-10T19:38:55.077Z,97424.34
2023-05-10T19:41:22.257Z,97426.53
2023-05-10T19:43:49.188Z,97426.69
2023-05-10T19:46:17.952Z,97424.69
2023-05-10T19:48:48.823Z,97419.44
2023-05-10T19:51:15.801Z,97420.25
2023-05-10T19:53:44.869Z,97425.22
2023-05-10T19:56:13.572Z,97417.44
2023-05-10T19:58:40.780Z,97421.91
2023-05-10T20:01:08.071Z,97417.94
2023-05-10T20:03:36.410Z,97418.25
2023-05-10T20:06:04.297Z,97413.31
2023-05-10T20:08:31.916Z,97423.22
2023-05-10T20:11:00.587Z,97425.84
2023-05-10T20:13:27.992Z,97426.88
2023-05-10T20:15:58.504Z,97423.22
2023-05-10T20:18:26.514Z,97422.25
2023-05-10T20:20:54.987Z,97422.25
2023-05-10T20:23:22.425Z,97428.16
2023-05-10T20:25:49.410Z,97425.38
2023-05-10T20:28:18.570Z,97424.69
2023-05-10T20:30:45.624Z,97432.47
2023-05-10T20:33:12.248Z,97425.84
2023-05-10T20:35:38.865Z,97431.28
2023-05-10T20:38:05.675Z,97427.34
2023-05-10T20:40:32.788Z,97427.66
2023-05-10T20:42:59.363Z,97434.09
2023-05-10T20:45:26.059Z,97427.50
2023-05-10T20:47:52.703Z,97430.13
2023-05-10T20:50:19.530Z,97431.28
2023-05-10T20:52:46.450Z,97426.19
2023-05-10T20:55:13.067Z,97423.22
2023-05-10T20:57:39.953Z,97423.88
2023-05-10T21:00:07.795Z,97425.03
2023-05-10T21:02:34.674Z,97433.28
2023-05-10T21:05:01.701Z,97423.88
2023-05-10T21:07:28.407Z,97423.22
2023-05-10T21:09:55.600Z,97422.72
2023-05-10T21:12:22.209Z,97430.78
2023-05-10T21:14:48.848Z,97433.59
2023-05-10T21:17:15.663Z,97426.50
2023-05-10T21:19:43.187Z,97422.88
2023-05-10T21:22:09.811Z,97421.06
2023-05-10T21:24:36.394Z,97417.75
2023-05-10T21:27:03.067Z,97413.78
2023-05-10T21:29:29.669Z,97415.28
2023-05-10T21:31:56.263Z,97415.09
2023-05-10T21:34:22.892Z,97417.56
2023-05-10T21:36:49.626Z,97421.16
2023-05-10T21:39:16.230Z,97418.72
2023-05-10T21:41:42.803Z,97418.56
2023-05-10T21:44:09.606Z,97422.66
2023-05-10T21:46:36.158Z,97417.84
2023-05-10T21:49:02.814Z,97419.72
2023-05-10T21:51:29.548Z,97417.22
2023-05-10T21:53:56.224Z,97417.84
2023-05-10T21:56:22.972Z,97423.47
2023-05-10T21:58:49.551Z,97414.53
2023-05-10T22:01:17.987Z,97417.03
2023-05-10T22:03:44.998Z,97420.63
2023-05-10T22:06:11.710Z,97426.88
2023-05-10T22:08:38.265Z,97435.59
2023-05-10T22:11:04.925Z,97426.69
2023-05-10T22:13:31.530Z,97429.31
2023-05-10T22:15:58.083Z,97436.22
2023-05-10T22:18:24.731Z,97430.00
2023-05-10T22:20:51.396Z,97429.31
2023-05-10T22:23:18.061Z,97428.03
2023-05-10T22:25:44.640Z,97436.28
2023-05-10T22:28:11.234Z,97434.59
2023-05-10T22:30:37.963Z,97433.59
2023-05-10T22:33:04.618Z,97424.72
2023-05-10T22:35:31.469Z,97427.69
2023-05-10T22:37:58.043Z,97432.28
2023-05-10T22:40:24.621Z,97429.94
2023-05-10T22:42:51.264Z,97433.22
2023-05-10T22:45:17.862Z,97427.53
2023-05-10T22:47:44.480Z,97422.09
2023-05-10T22:50:11.891Z,97434.44
2023-05-10T22:52:39.385Z,97437.06
2023-05-10T22:55:07.143Z,97433.63
2023-05-10T22:57:34.122Z,97437.25
2023-05-10T23:00:00.915Z,97440.34
2023-05-10T23:02:27.580Z,97432.47
2023-05-10T23:04:54.424Z,97431.44
2023-05-10T23:07:21.181Z,97431.44
2023-05-10T23:09:48.761Z,97437.06
2023-05-10T23:12:15.543Z,97428.47
2023-05-10T23:14:42.209Z,97426.75
2023-05-10T23:17:08.788Z,97427.75
2023-05-10T23:19:35.400Z,97424.44
2023-05-10T23:22:02.017Z,97430.22
2023-05-10T23:24:29.040Z,97430.00
2023-05-10T23:26:56.783Z,97424.56
2023-05-10T23:29:26.130Z,97422.06
2023-05-10T23:31:53.132Z,97421.38
2023-05-10T23:34:19.801Z,97424.66
2023-05-10T23:36:46.512Z,97424.00
2023-05-10T23:39:13.503Z,97427.25
2023-05-10T23:41:40.149Z,97414.88
2023-05-10T23:44:06.748Z,97416.34
2023-05-10T23:46:33.346Z,97417.31
2023-05-10T23:48:59.946Z,97417.31
2023-05-10T23:55:16.278Z,97411.56
2023-05-10T23:57:42.936Z,97411.56
